Current | Forecast
Updated: 4:00 PM JST on June 20, 2018
Observed at Iwami, Japan
Temperature 72°F
Humidity 88%
Dew Point 68°F
Wind NW at 6 mph
Pressure 29.56 in (Falling)
Conditions Scattered Clouds
Visibility 6.2 miles
UV 5 out of 16
Clouds (FEW) : 700 ft
Scattered Clouds (SCT) : 2000 ft
Yesterday's Maximum 77°F
Yesterday's Minimum 72°F approx.
Yesterday's Cooling Degree Days 9 approx.
Sunrise5:02 AM JST
Sunset7:29 PM JST
Moon Rise11:52 AM JST
Moon Set12:04 AM JST
Moon PhaseMoon Phase
Waxing Crescent
Raw METARMETAR RJOW 200700Z 31005KT 280V010 9999 FEW007 SCT020 BKN/// 22/20 Q1001


Monday
. High: 69° F.
Tuesday
. High: 71° F.
Wednesday
. High: 68° F.
Thursday
. High: 71° F.
Friday
. High: 75° F.
Saturday
. High: 71° F.
Sunday
. High: 77° F.
Monday
. High: 75° F.

Units: English | Metric

Find the Weather for any City, State or Zipcode, or Country:

U.S. State List | Severe Weather | Tropical Storms | Ski Conditions
United States | Canada | Central America | South America | Asia | Europe | Australia | Africa | Islands

Weather Underground

© Copyright 2018
The Weather Company, LLC